Gravesville, New York
Current Conditions -  °F | °C
As of 11:53 AM on Tuesday 27 Jan 2015 (Local Time) from KRME Reporting Station
Clear Clear  
Wind Chill:   Ceiling: Unl
Heat Index: 13°   Visibility: 10mi
Dew Point: -1°   Wind: 10mph
Humidity: 54%   Direction: 340°NNW
Pressure: 29.91"   Gusts: NA
Location:  43.1704°N, 75.068°W
Report Text: KRME 271653Z 34009KT 10SM CLR M11/M18 A2991 RMK AO2 SLP136 T11061183
Loading
Personal Weather Stations






























Interactive Weather Map New forecast layout! Learn more

10-Day Weather Forecast

Advertisements
Track Severe Weather on mobile